Time;durP1;ratioP1;P1;durP2;ratioP2;P2;SDS_P1;SDS_P2;PMS_P1;PMS_P2;Temp;Humidity;BMP_temperature;BMP_pressure;BME280_temperature;BME280_humidity;BME280_pressure;Samples;Min_cycle;Max_cycle;Signal;HPM_P1;HPM_P2
2021/12/09 00:01:22;;;;;;;14.30;6.80;;;;;;;2.08;100.00;100093.69;5071853;28;20366;-75
2021/12/09 00:03:54;;;;;;;18.13;7.18;;;;;;;1.99;100.00;100099.91;5070324;28;20523;-75
2021/12/09 00:06:25;;;;;;;19.65;7.88;;;;;;;1.92;100.00;100102.59;5071199;28;20113;-74
2021/12/09 00:08:55;;;;;;;20.90;7.53;;;;;;;1.98;100.00;100098.16;5071885;28;20051;-75
2021/12/09 00:11:23;;;;;;;21.30;7.20;;;;;;;1.95;100.00;100102.56;5071647;28;20303;-75
2021/12/09 00:13:52;;;;;;;25.05;9.55;;;;;;;1.86;100.00;100104.38;5071165;28;20089;-75
2021/12/09 00:16:25;;;;;;;20.60;7.63;;;;;;;1.83;100.00;100114.06;5071525;28;20040;-75
2021/12/09 00:18:53;;;;;;;20.65;8.02;;;;;;;1.80;100.00;100127.22;5074192;28;20196;-75
2021/12/09 00:21:21;;;;;;;24.58;9.65;;;;;;;1.76;100.00;100123.75;5070276;28;20062;-75
2021/12/09 00:23:49;;;;;;;22.52;8.57;;;;;;;1.74;100.00;100120.28;5069022;28;20418;-75
2021/12/09 00:26:17;;;;;;;19.67;7.70;;;;;;;1.73;100.00;100122.91;5070996;28;20055;-75
2021/12/09 00:28:45;;;;;;;23.42;8.25;;;;;;;1.71;100.00;100117.66;5070066;28;20681;-75
2021/12/09 00:31:17;;;;;;;26.20;6.63;;;;;;;1.68;100.00;100115.03;5071814;28;20143;-75
2021/12/09 00:33:46;;;;;;;24.50;8.05;;;;;;;1.60;100.00;100115.09;5072042;28;20136;-75
2021/12/09 00:36:17;;;;;;;20.17;9.23;;;;;;;1.71;100.00;100119.41;5072209;28;20048;-75
2021/12/09 00:38:45;;;;;;;18.23;8.15;;;;;;;1.73;100.00;100126.41;5069755;28;20523;-75
2021/12/09 00:41:15;;;;;;;21.02;6.65;;;;;;;1.71;100.00;100119.41;5070905;28;20138;-75
2021/12/09 00:43:46;;;;;;;15.93;6.88;;;;;;;1.71;100.00;100116.78;5067202;28;20061;-75
2021/12/09 00:46:16;;;;;;;17.60;7.07;;;;;;;1.67;100.00;100115.94;5070029;28;20055;-75
2021/12/09 00:48:44;;;;;;;21.23;7.75;;;;;;;1.60;100.00;100127.38;5069499;28;20160;-75
2021/12/09 00:51:12;;;;;;;19.08;7.65;;;;;;;1.61;100.00;100116.84;5072027;28;20127;-75
2021/12/09 00:53:40;;;;;;;21.75;7.50;;;;;;;1.61;100.00;100113.34;5070209;28;20062;-75
2021/12/09 00:56:10;;;;;;;20.10;7.03;;;;;;;1.65;100.00;100115.06;5073293;28;20048;-75
2021/12/09 00:58:39;;;;;;;18.40;7.28;;;;;;;1.71;100.00;100115.03;5070519;28;20052;-75
2021/12/09 01:01:09;;;;;;;19.98;7.03;;;;;;;1.69;100.00;100119.44;5069457;28;20051;-75
2021/12/09 01:03:41;;;;;;;24.90;7.28;;;;;;;1.70;100.00;100125.56;5069470;28;20442;-75
2021/12/09 01:06:10;;;;;;;19.52;7.57;;;;;;;1.72;100.00;100124.66;5072529;28;20055;-75
2021/12/09 01:08:42;;;;;;;18.42;7.25;;;;;;;1.84;100.00;100121.06;5072742;28;20058;-75
2021/12/09 01:11:14;;;;;;;18.48;7.93;;;;;;;1.77;100.00;100117.63;5068114;28;20518;-74
2021/12/09 01:13:44;;;;;;;18.25;7.93;;;;;;;1.85;100.00;100117.53;5066297;28;20051;-75
2021/12/09 01:16:15;;;;;;;21.02;7.65;;;;;;;1.84;100.00;100116.69;5068234;28;20082;-75
2021/12/09 01:18:45;;;;;;;22.10;7.03;;;;;;;1.86;100.00;100098.25;5071494;28;20142;-75
2021/12/09 01:21:13;;;;;;;20.80;7.55;;;;;;;1.91;100.00;100103.44;5069587;28;20493;-75
2021/12/09 01:23:42;;;;;;;19.42;7.30;;;;;;;1.82;100.00;100107.03;5070372;28;20040;-75
2021/12/09 01:26:11;;;;;;;20.52;7.85;;;;;;;1.87;100.00;100107.88;5067546;28;20098;-75
2021/12/09 01:28:46;;;;;;;20.13;7.38;;;;;;;1.95;100.00;100107.81;5069914;28;20080;-74
2021/12/09 01:31:21;;;;;;;18.40;7.18;;;;;;;1.94;100.00;100103.44;5070614;28;20052;-74
2021/12/09 01:33:53;;;;;;;22.02;8.00;;;;;;;2.00;100.00;100100.75;5073409;28;20076;-74
2021/12/09 01:36:22;;;;;;;18.45;7.72;;;;;;;1.96;100.00;100106.91;5068482;28;20139;-74
2021/12/09 01:38:50;;;;;;;21.33;6.38;;;;;;;1.99;100.00;100104.25;5071293;28;20494;-74
2021/12/09 01:41:18;;;;;;;18.50;6.82;;;;;;;1.97;100.00;100106.91;5068952;28;20136;-74
2021/12/09 01:43:48;;;;;;;15.20;6.68;;;;;;;1.93;100.00;100102.56;5066439;28;20060;-74
2021/12/09 01:46:17;;;;;;;17.42;6.43;;;;;;;1.99;100.00;100114.78;5067564;28;20062;-73
2021/12/09 01:48:47;;;;;;;15.02;6.35;;;;;;;2.00;100.00;100111.28;5070857;28;20143;-73
2021/12/09 01:51:18;;;;;;;16.10;7.40;;;;;;;1.98;100.00;100110.44;5070137;28;20139;-74
2021/12/09 01:53:48;;;;;;;20.33;7.38;;;;;;;2.09;100.00;100115.59;5068190;28;20583;-74
2021/12/09 01:56:20;;;;;;;18.75;6.47;;;;;;;2.06;100.00;100119.16;5067986;28;20052;-74
2021/12/09 01:58:50;;;;;;;21.25;6.85;;;;;;;2.02;100.00;100118.28;5069078;28;20052;-75
2021/12/09 02:01:18;;;;;;;22.60;6.07;;;;;;;2.00;100.00;100119.19;5067664;28;20118;-75
2021/12/09 02:03:47;;;;;;;14.38;6.88;;;;;;;2.07;100.00;100122.63;5071473;28;20072;-74
2021/12/09 02:06:15;;;;;;;16.17;6.88;;;;;;;2.09;100.00;100126.13;5067104;28;20554;-75
2021/12/09 02:08:44;;;;;;;17.45;6.00;;;;;;;2.01;100.00;100132.34;5069291;28;20399;-74
2021/12/09 02:11:12;;;;;;;21.13;6.53;;;;;;;1.95;100.00;100131.50;5068823;28;20646;-75
2021/12/09 02:13:41;;;;;;;16.52;7.20;;;;;;;1.99;100.00;100136.75;5067806;28;20179;-74
2021/12/09 02:16:09;;;;;;;14.15;6.07;;;;;;;1.91;100.00;100125.41;5070835;28;20129;-74
2021/12/09 02:18:38;;;;;;;18.55;7.07;;;;;;;1.91;100.00;100125.41;5069103;28;20205;-74
2021/12/09 02:21:14;;;;;;;18.83;7.00;;;;;;;2.03;100.00;100119.16;5069799;28;20048;-74
2021/12/09 02:23:44;;;;;;;19.58;6.93;;;;;;;1.91;100.00;100130.66;5067963;28;20075;-75
2021/12/09 02:26:14;;;;;;;14.52;6.82;;;;;;;1.92;100.00;100128.91;5068557;28;20066;-75
2021/12/09 02:28:43;;;;;;;18.48;6.95;;;;;;;1.88;100.00;100132.44;5064577;28;20159;-75
2021/12/09 02:31:12;;;;;;;21.13;7.10;;;;;;;1.83;100.00;100122.81;5069664;28;20075;-76
2021/12/09 02:33:40;;;;;;;22.30;7.35;;;;;;;1.88;100.00;100130.69;5068410;28;20062;-76
2021/12/09 02:36:09;;;;;;;12.88;6.30;;;;;;;1.94;100.00;100127.13;5073030;28;20052;-75
2021/12/09 02:38:43;;;;;;;13.48;6.03;;;;;;;1.83;100.00;100130.72;5070189;28;20043;-75
2021/12/09 02:41:15;;;;;;;21.63;7.30;;;;;;;1.83;100.00;100121.94;5071051;28;20135;-76
2021/12/09 02:43:46;;;;;;;12.27;6.38;;;;;;;1.82;100.00;100128.09;5071895;28;20060;-75
2021/12/09 02:46:15;;;;;;;21.63;7.22;;;;;;;1.83;100.00;100129.84;5072099;28;20048;-75
2021/12/09 02:48:44;;;;;;;20.98;7.60;;;;;;;1.82;100.00;100130.72;5072157;28;20075;-75
2021/12/09 02:51:15;;;;;;;14.77;7.47;;;;;;;1.77;100.00;100133.41;5072418;28;20044;-75
2021/12/09 02:53:43;;;;;;;16.08;6.78;;;;;;;1.68;100.00;100134.31;5069096;28;20070;-75
2021/12/09 02:56:12;;;;;;;19.27;7.68;;;;;;;1.68;100.00;100123.78;5072739;28;20064;-76
2021/12/09 02:58:41;;;;;;;17.60;7.03;;;;;;;1.63;100.00;100125.59;5072126;28;20170;-75
2021/12/09 03:01:14;;;;;;;17.40;6.43;;;;;;;1.72;100.00;100129.94;5070164;28;20044;-76
2021/12/09 03:03:50;;;;;;;20.88;7.38;;;;;;;1.60;100.00;100124.72;5074001;28;20060;-75
2021/12/09 03:06:21;;;;;;;25.80;7.88;;;;;;;1.63;100.00;100129.97;5071512;28;20412;-75
2021/12/09 03:08:52;;;;;;;17.65;7.50;;;;;;;1.72;100.00;100131.66;5071465;28;20151;-75
2021/12/09 03:11:22;;;;;;;25.55;8.82;;;;;;;1.68;100.00;100125.56;5071625;28;20208;-75
2021/12/09 03:13:52;;;;;;;21.70;7.57;;;;;;;1.58;100.00;100137.88;5071121;28;20536;-75
2021/12/09 03:16:22;;;;;;;26.95;7.57;;;;;;;1.57;100.00;100137.94;5073758;28;20270;-75
2021/12/09 03:18:54;;;;;;;19.27;8.45;;;;;;;1.62;100.00;100138.78;5069197;28;21248;-75
2021/12/09 03:21:25;;;;;;;18.50;7.15;;;;;;;1.71;100.00;100136.06;5074208;28;20637;-75
2021/12/09 03:23:54;;;;;;;17.15;7.78;;;;;;;1.60;100.00;100145.78;5072005;28;20057;-75
2021/12/09 03:26:29;;;;;;;17.58;8.23;;;;;;;1.54;100.00;100143.19;5073401;28;20407;-76
2021/12/09 03:29:00;;;;;;;21.67;7.40;;;;;;;1.52;100.00;100137.09;5070310;28;20135;-75
2021/12/09 03:31:30;;;;;;;18.08;7.88;;;;;;;1.48;100.00;100144.09;5074434;28;20124;-75
2021/12/09 03:34:00;;;;;;;15.27;7.15;;;;;;;1.57;100.00;100145.81;5068317;28;20052;-75
2021/12/09 03:36:30;;;;;;;15.85;6.85;;;;;;;1.56;100.00;100141.44;5074497;28;20041;-74
2021/12/09 03:39:00;;;;;;;20.02;7.30;;;;;;;1.56;100.00;100136.16;5070868;28;20219;-75
2021/12/09 03:41:29;;;;;;;22.52;7.72;;;;;;;1.50;100.00;100142.34;5072336;28;20067;-75
2021/12/09 03:43:57;;;;;;;21.52;7.25;;;;;;;1.50;100.00;100150.25;5073460;28;20139;-75
2021/12/09 03:46:26;;;;;;;19.95;7.28;;;;;;;1.51;100.00;100148.47;5070545;28;20063;-75
2021/12/09 03:48:54;;;;;;;24.85;7.72;;;;;;;1.45;100.00;100149.41;5071563;28;20047;-75
2021/12/09 03:51:22;;;;;;;18.98;6.88;;;;;;;1.50;100.00;100137.09;5072625;28;20209;-75
2021/12/09 03:53:53;;;;;;;23.45;7.72;;;;;;;1.57;100.00;100149.31;5071834;28;20269;-75
2021/12/09 03:56:22;;;;;;;18.58;7.18;;;;;;;1.51;100.00;100143.22;5072671;28;20052;-75
2021/12/09 03:58:50;;;;;;;24.58;7.95;;;;;;;1.38;100.00;100143.28;5075018;28;20454;-75
2021/12/09 04:01:17;;;;;;;20.60;6.75;;;;;;;1.37;100.00;100153.81;5070238;28;20180;-75
2021/12/09 04:03:46;;;;;;;17.13;7.30;;;;;;;1.38;100.00;100158.16;5071165;28;20055;-75
2021/12/09 04:06:14;;;;;;;19.02;7.38;;;;;;;1.44;100.00;100150.25;5071562;28;20049;-75
2021/12/09 04:08:42;;;;;;;19.73;6.18;;;;;;;1.44;100.00;100155.53;5072717;28;20140;-75
2021/12/09 04:11:11;;;;;;;19.85;6.60;;;;;;;1.44;100.00;100158.16;5069426;28;20125;-75
2021/12/09 04:13:39;;;;;;;19.80;6.47;;;;;;;1.55;100.00;100151.09;5072355;28;20052;-75
2021/12/09 04:16:08;;;;;;;16.30;6.97;;;;;;;1.57;100.00;100151.06;5070677;28;20506;-75
2021/12/09 04:18:37;;;;;;;15.15;6.80;;;;;;;1.59;100.00;100165.94;5072105;28;20055;-75
2021/12/09 04:21:06;;;;;;;26.52;7.95;;;;;;;1.63;100.00;100161.53;5069721;28;20135;-75
2021/12/09 04:23:35;;;;;;;17.15;7.38;;;;;;;1.55;100.00;100153.72;5073001;28;20075;-75
2021/12/09 04:26:04;;;;;;;15.57;6.25;;;;;;;1.50;100.00;100150.25;5072500;28;20056;-75
2021/12/09 04:28:34;;;;;;;21.15;7.32;;;;;;;1.51;100.00;100149.34;5071364;28;20123;-75
2021/12/09 04:31:04;;;;;;;20.70;6.65;;;;;;;1.57;100.00;100149.31;5070423;28;20048;-74
2021/12/09 04:33:33;;;;;;;22.00;6.47;;;;;;;1.56;100.00;100146.69;5071713;28;20679;-75
2021/12/09 04:36:01;;;;;;;21.58;7.00;;;;;;;1.57;100.00;100145.81;5069284;28;20059;-75
2021/12/09 04:38:30;;;;;;;22.90;7.28;;;;;;;1.53;100.00;100152.81;5073021;28;20050;-75
2021/12/09 04:40:58;;;;;;;20.40;5.88;;;;;;;1.60;100.00;100161.56;5068483;28;20141;-75
2021/12/09 04:43:26;;;;;;;15.82;6.45;;;;;;;1.61;100.00;100161.53;5073893;28;20040;-75
2021/12/09 04:45:59;;;;;;;21.52;6.22;;;;;;;1.56;100.00;100162.47;5073228;28;20063;-75
2021/12/09 04:48:27;;;;;;;19.95;5.63;;;;;;;1.57;100.00;100159.84;5069205;28;20507;-75
2021/12/09 04:50:55;;;;;;;20.95;5.10;;;;;;;1.61;100.00;100166.81;5070260;28;20057;-75
2021/12/09 04:53:23;;;;;;;17.30;5.43;;;;;;;1.70;100.00;100171.13;5069031;28;20127;-75
2021/12/09 04:55:52;;;;;;;18.60;5.55;;;;;;;1.60;100.00;100179.97;5071890;28;20095;-75
2021/12/09 04:58:20;;;;;;;20.08;5.85;;;;;;;1.60;100.00;100179.97;5071541;28;20296;-75
2021/12/09 05:00:49;;;;;;;23.73;5.47;;;;;;;1.57;100.00;100182.63;5071289;28;20070;-76
2021/12/09 05:03:21;;;;;;;18.25;4.95;;;;;;;1.59;100.00;100181.72;5069263;28;20311;-76
2021/12/09 05:05:51;;;;;;;15.45;5.35;;;;;;;1.61;100.00;100182.59;5068935;28;20202;-76
2021/12/09 05:08:23;;;;;;;15.82;5.50;;;;;;;1.66;100.00;100190.47;5070107;28;20251;-74
2021/12/09 05:11:01;;;;;;;18.10;5.22;;;;;;;1.64;100.00;100189.59;5070960;28;20055;-76
2021/12/09 05:13:31;;;;;;;23.40;6.38;;;;;;;1.62;100.00;100189.59;5070331;28;20058;-76
2021/12/09 05:16:01;;;;;;;19.98;5.10;;;;;;;1.64;100.00;100190.47;5069740;28;20059;-75
2021/12/09 05:18:35;;;;;;;14.57;6.03;;;;;;;1.71;100.00;100188.66;5071866;28;20043;-76
2021/12/09 05:21:06;;;;;;;15.00;5.68;;;;;;;1.73;100.00;100189.53;5071527;28;20056;-76
2021/12/09 05:23:35;;;;;;;22.65;5.88;;;;;;;1.72;100.00;100182.53;5067670;28;20095;-76
2021/12/09 05:26:03;;;;;;;17.52;6.20;;;;;;;1.77;100.00;100186.00;5068033;28;20058;-75
2021/12/09 05:28:37;;;;;;;25.58;5.97;;;;;;;1.72;100.00;100185.16;5070961;28;20143;-76
2021/12/09 05:34:08;;;;;;;19.92;4.93;;;;;;;1.82;100.00;100184.22;4985303;28;20081;-75
2021/12/09 05:36:39;;;;;;;16.83;5.10;;;;;;;1.82;100.00;100183.34;5054100;28;20139;-75
2021/12/09 05:39:11;;;;;;;18.77;5.57;;;;;;;1.86;100.00;100185.06;5065612;28;20084;-75
2021/12/09 05:41:40;;;;;;;17.13;4.60;;;;;;;1.75;100.00;100184.25;5067926;28;20048;-73
2021/12/09 05:44:09;;;;;;;15.10;4.45;;;;;;;1.61;100.00;100197.50;5070047;28;20074;-75
2021/12/09 05:46:39;;;;;;;17.85;5.63;;;;;;;1.59;100.00;100189.63;5073091;28;20731;-76
2021/12/09 05:49:13;;;;;;;14.95;5.07;;;;;;;1.57;100.00;100193.16;5065761;28;20052;-76
2021/12/09 05:51:42;;;;;;;13.40;4.57;;;;;;;1.51;100.00;100193.19;5068906;28;20134;-76
2021/12/09 05:54:10;;;;;;;19.58;5.50;;;;;;;1.53;100.00;100194.03;5065589;28;20052;-74
2021/12/09 05:56:38;;;;;;;13.23;4.68;;;;;;;1.50;100.00;100197.56;5069378;28;20107;-76
2021/12/09 05:59:08;;;;;;;17.15;5.30;;;;;;;1.55;100.00;100202.78;5069281;28;20047;-76
2021/12/09 06:01:39;;;;;;;18.25;4.93;;;;;;;1.65;100.00;100199.22;5072617;28;20040;-74
2021/12/09 06:04:09;;;;;;;18.17;5.07;;;;;;;1.64;100.00;100198.34;5068627;28;20059;-74
2021/12/09 06:06:37;;;;;;;17.17;5.18;;;;;;;1.70;100.00;100213.22;5070527;28;20131;-75
2021/12/09 06:09:07;;;;;;;20.25;5.60;;;;;;;1.64;100.00;100202.75;5067216;28;20096;-75
2021/12/09 06:11:35;;;;;;;14.13;5.35;;;;;;;1.68;100.00;100204.47;5073530;28;20136;-75
2021/12/09 06:14:04;;;;;;;12.98;4.82;;;;;;;1.66;100.00;100195.72;5073485;28;20101;-75
2021/12/09 06:16:31;;;;;;;15.98;4.70;;;;;;;1.64;100.00;100208.00;5074273;28;20141;-75
2021/12/09 06:19:01;;;;;;;21.65;5.90;;;;;;;1.56;100.00;100202.78;5072974;28;20048;-76
2021/12/09 06:21:31;;;;;;;20.60;5.07;;;;;;;1.60;100.00;100211.53;5074233;28;20058;-75
2021/12/09 06:24:01;;;;;;;19.90;6.03;;;;;;;1.57;100.00;100204.53;5073282;28;20121;-76
2021/12/09 06:26:31;;;;;;;19.05;5.60;;;;;;;1.51;100.00;100211.59;5078132;28;20032;-75
2021/12/09 06:29:00;;;;;;;14.98;4.72;;;;;;;1.55;100.00;100210.66;5070626;28;20054;-76
2021/12/09 06:31:29;;;;;;;22.02;5.18;;;;;;;1.63;100.00;100215.00;5074169;28;20087;-76
2021/12/09 06:33:57;;;;;;;21.55;5.53;;;;;;;1.60;100.00;100203.63;5072863;28;20048;-77
2021/12/09 06:36:25;;;;;;;19.95;6.00;;;;;;;1.53;100.00;100207.19;5076959;28;20143;-76
2021/12/09 06:38:55;;;;;;;13.20;5.30;;;;;;;1.51;100.00;100196.66;5072306;28;20128;-76
2021/12/09 06:41:23;;;;;;;20.27;5.30;;;;;;;1.60;100.00;100206.25;5074836;28;20048;-76
2021/12/09 06:43:51;;;;;;;15.98;6.03;;;;;;;1.58;100.00;100202.78;5072081;28;20043;-77
2021/12/09 06:46:19;;;;;;;21.92;6.60;;;;;;;1.60;100.00;100199.28;5072541;28;20110;-76
2021/12/09 06:48:50;;;;;;;17.42;6.00;;;;;;;1.63;100.00;100201.84;5073127;28;20048;-76
2021/12/09 06:51:18;;;;;;;19.27;7.30;;;;;;;1.61;100.00;100201.00;5074000;28;21345;-75
2021/12/09 06:53:48;;;;;;;15.27;5.65;;;;;;;1.62;100.00;100201.91;5072469;28;20050;-76
2021/12/09 06:56:18;;;;;;;15.88;5.38;;;;;;;1.57;100.00;100201.91;5074691;28;20971;-76
2021/12/09 06:58:47;;;;;;;14.20;6.13;;;;;;;1.48;100.00;100204.56;5074349;28;20160;-76
2021/12/09 07:01:17;;;;;;;28.00;6.85;;;;;;;1.51;100.00;100211.59;5070379;28;20082;-76
2021/12/09 07:03:47;;;;;;;15.70;5.75;;;;;;;1.51;100.00;100208.94;5074909;28;20052;-75
2021/12/09 07:06:16;;;;;;;18.77;6.38;;;;;;;1.52;100.00;100216.84;5071490;28;20064;-75
2021/12/09 07:08:46;;;;;;;20.95;6.57;;;;;;;1.47;100.00;100211.59;5072173;28;20078;-76
2021/12/09 07:11:15;;;;;;;13.52;5.68;;;;;;;1.45;100.00;100218.63;5071934;28;20179;-75
2021/12/09 07:13:46;;;;;;;21.75;6.40;;;;;;;1.56;100.00;100215.06;5071773;28;20055;-76
2021/12/09 07:16:15;;;;;;;18.90;6.55;;;;;;;1.60;100.00;100216.78;5072189;28;20056;-76
2021/12/09 07:18:43;;;;;;;19.27;5.38;;;;;;;1.55;100.00;100221.19;5072301;28;20126;-75
2021/12/09 07:21:11;;;;;;;20.90;6.75;;;;;;;1.60;100.00;100222.94;5075201;28;20149;-76
2021/12/09 07:23:40;;;;;;;13.90;5.38;;;;;;;1.66;100.00;100228.16;5070291;28;20059;-75
2021/12/09 07:26:08;;;;;;;18.15;5.82;;;;;;;1.64;100.00;100223.78;5070234;28;21289;-75
2021/12/09 07:28:36;;;;;;;14.90;6.57;;;;;;;1.69;100.00;100224.63;5071789;28;20048;-75
2021/12/09 07:31:06;;;;;;;19.60;6.35;;;;;;;1.66;100.00;100228.16;5071286;28;20602;-76
2021/12/09 07:33:34;;;;;;;16.38;5.63;;;;;;;1.69;100.00;100237.78;5072061;28;20056;-76
2021/12/09 07:36:04;;;;;;;18.63;6.60;;;;;;;1.75;100.00;100228.97;5073334;28;20097;-77
2021/12/09 07:38:32;;;;;;;23.50;7.30;;;;;;;1.89;100.00;100229.78;5071179;28;20052;-77
2021/12/09 07:41:01;;;;;;;11.82;6.30;;;;;;;1.90;100.00;100234.16;5071560;28;20059;-77
2021/12/09 07:43:30;;;;;;;21.27;7.35;;;;;;;1.96;100.00;100234.13;5071991;28;20098;-76
2021/12/09 07:46:01;;;;;;;18.08;7.32;;;;;;;2.04;100.00;100228.78;5070793;28;20154;-76
2021/12/09 07:48:30;;;;;;;15.98;6.90;;;;;;;2.09;100.00;100236.66;5074529;28;20079;-77
2021/12/09 07:50:59;;;;;;;18.75;7.38;;;;;;;2.10;100.00;100247.19;5073342;28;20090;-72
2021/12/09 07:53:26;;;;;;;16.08;6.45;;;;;;;2.13;100.00;100247.16;5069234;28;20058;-71
2021/12/09 07:55:55;;;;;;;18.48;8.25;;;;;;;2.18;100.00;100245.38;5069574;28;20169;-71
2021/12/09 07:58:24;;;;;;;19.38;9.30;;;;;;;2.23;100.00;100254.13;5073534;28;20056;-71
2021/12/09 08:00:52;;;;;;;26.70;8.45;;;;;;;2.24;100.00;100247.94;5070835;28;20185;-71
2021/12/09 08:03:21;;;;;;;23.52;8.50;;;;;;;2.29;100.00;100254.97;5073152;28;20066;-70
2021/12/09 08:05:51;;;;;;;19.83;8.80;;;;;;;2.33;100.00;100252.28;5070230;28;20093;-70
2021/12/09 08:08:19;;;;;;;21.40;8.48;;;;;;;2.34;100.00;100261.94;5073039;28;20138;-70
2021/12/09 08:10:47;;;;;;;24.10;8.25;;;;;;;2.35;100.00;100262.78;5069459;28;20055;-72
2021/12/09 08:13:15;;;;;;;24.58;7.45;;;;;;;2.41;100.00;100268.03;5072999;28;20105;-72
2021/12/09 08:15:48;;;;;;;17.00;8.07;;;;;;;2.43;100.00;100271.50;5070546;28;20075;-73
2021/12/09 08:18:27;;;;;;;23.65;8.63;;;;;;;2.47;100.00;100261.81;5071060;28;20072;-73
2021/12/09 08:21:01;;;;;;;24.25;8.30;;;;;;;2.47;100.00;100265.34;5071248;28;20851;-73
2021/12/09 08:23:30;;;;;;;23.80;7.35;;;;;;;2.50;100.00;100265.31;5072453;28;20545;-73
2021/12/09 08:25:58;;;;;;;27.17;8.02;;;;;;;2.50;100.00;100259.16;5069488;28;20052;-73
2021/12/09 08:28:27;;;;;;;24.95;9.20;;;;;;;2.51;100.00;100259.16;5073399;28;20049;-74
2021/12/09 08:30:55;;;;;;;21.30;8.52;;;;;;;2.55;100.00;100262.63;5071765;28;20580;-73
2021/12/09 08:33:25;;;;;;;24.52;8.57;;;;;;;2.60;100.00;100269.59;5072838;28;20135;-74
2021/12/09 08:35:53;;;;;;;21.65;8.10;;;;;;;2.59;100.00;100259.97;5069633;28;20781;-74
2021/12/09 08:38:23;;;;;;;22.58;8.02;;;;;;;2.63;100.00;100263.44;5072178;28;20108;-74
2021/12/09 08:43:42;;;;;;;22.63;8.45;;;;;;;2.65;100.00;100263.44;5070915;28;20048;-71
2021/12/09 08:46:18;;;;;;;23.40;8.07;;;;;;;2.66;100.00;100266.06;5069999;28;20078;-71
2021/12/09 08:48:47;;;;;;;23.50;8.13;;;;;;;2.72;100.00;100265.13;5071512;28;20048;-75
2021/12/09 08:51:24;;;;;;;17.58;7.95;;;;;;;2.72;100.00;100267.75;5072759;28;20053;-71
2021/12/09 08:54:30;;;;;;;28.20;8.60;;;;;;;2.76;100.00;100264.22;5066669;28;20126;-71
2021/12/09 08:57:19;;;;;;;21.40;7.38;;;;;;;2.80;100.00;100269.44;5069623;28;20071;-72
2021/12/09 09:00:01;;;;;;;20.95;7.72;;;;;;;2.83;100.00;100271.19;5070573;28;20073;-71
2021/12/09 09:02:47;;;;;;;18.73;8.38;;;;;;;2.92;100.00;100272.84;5101015;27;20040;-72
2021/12/09 09:05:46;;;;;;;20.42;8.55;;;;;;;2.93;100.00;100274.63;5065669;28;20047;-71
2021/12/09 09:11:48;;;;;;;25.88;8.82;;;;;;;3.02;100.00;100274.50;5067674;28;20056;-71
2021/12/09 09:14:54;;;;;;;32.17;10.25;;;;;;;3.05;100.00;100279.75;5070968;28;20518;-72
2021/12/09 09:17:50;;;;;;;17.48;8.20;;;;;;;3.16;100.00;100274.38;5071520;28;20061;-72
2021/12/09 09:23:45;;;;;;;22.85;9.70;;;;;;;3.10;100.00;100288.50;5071073;28;20544;-72
2021/12/09 09:26:32;;;;;;;20.60;9.18;;;;;;;3.12;100.00;100277.94;5066120;28;20039;-72
2021/12/09 09:32:34;;;;;;;20.27;8.65;;;;;;;3.32;100.00;100289.13;5069698;28;20492;-72
2021/12/09 09:38:00;;;;;;;23.23;10.90;;;;;;;3.46;100.00;100288.13;5068818;28;20472;-73
2021/12/09 09:40:39;;;;;;;28.73;11.50;;;;;;;3.49;100.00;100282.78;5069423;28;20480;-73
2021/12/09 09:43:25;;;;;;;24.60;10.50;;;;;;;3.52;100.00;100295.94;5066985;28;21239;-74
2021/12/09 09:46:02;;;;;;;27.30;12.48;;;;;;;3.56;100.00;100292.38;5068041;28;20491;-73
2021/12/09 09:48:47;;;;;;;27.40;11.05;;;;;;;3.57;100.00;100291.47;5070276;28;20067;-74
2021/12/09 09:52:00;;;;;;;27.35;10.63;;;;;;;3.59;100.00;100294.97;5069364;28;20057;-74
2021/12/09 09:54:48;;;;;;;33.65;11.93;;;;;;;3.69;100.00;100288.69;5067215;28;20056;-74
2021/12/09 09:57:17;;;;;;;26.10;11.38;;;;;;;3.80;100.00;100285.94;5072397;28;20496;-76
2021/12/09 09:59:45;;;;;;;24.48;10.68;;;;;;;3.92;100.00;100288.38;5068826;28;20113;-75
2021/12/09 10:02:14;;;;;;;23.98;10.98;;;;;;;3.81;100.00;100287.66;5071110;28;20063;-75
2021/12/09 10:04:47;;;;;;;32.13;11.95;;;;;;;3.72;100.00;100299.19;5069244;28;20048;-76
2021/12/09 10:07:19;;;;;;;28.08;11.20;;;;;;;3.72;100.00;100299.19;5069862;28;20109;-75
2021/12/09 10:27:23;;;;;;;50.15;13.85;;;;;;;3.74;100.00;100304.47;5070348;28;20113;-78
2021/12/09 10:29:56;;;;;;;26.08;11.90;;;;;;;3.70;100.00;100293.06;5071696;28;20512;-78
2021/12/09 10:35:50;;;;;;;28.90;12.00;;;;;;;3.79;100.00;100288.59;5070458;28;20048;-73
2021/12/09 10:38:27;;;;;;;29.45;13.73;;;;;;;3.77;100.00;100278.03;5068654;28;20060;-75
2021/12/09 10:40:55;;;;;;;33.97;14.02;;;;;;;3.88;100.00;100270.88;5070335;28;20055;-75
2021/12/09 10:47:10;;;;;;;35.53;13.50;;;;;;;3.95;100.00;100276.94;5064392;28;20085;-76
2021/12/09 10:50:05;;;;;;;35.85;16.35;;;;;;;3.89;100.00;100277.00;5071565;28;20048;-72
2021/12/09 10:52:42;;;;;;;29.63;14.30;;;;;;;3.90;100.00;100271.72;5069531;28;20045;-80
2021/12/09 10:55:29;;;;;;;28.95;14.57;;;;;;;3.86;100.00;100269.13;5071095;28;20047;-74
2021/12/09 10:58:58;;;;;;;27.15;12.60;;;;;;;3.88;100.00;100276.16;5075141;28;20055;-74
2021/12/09 11:02:17;;;;;;;35.00;14.90;;;;;;;3.84;100.00;100263.00;5073797;28;20054;-74
2021/12/09 11:12:53;;;;;;;30.08;14.85;;;;;;;4.13;100.00;100278.41;5072501;28;20502;-75
2021/12/09 11:15:48;;;;;;;34.75;14.65;;;;;;;4.11;100.00;100273.16;5074994;28;20048;-80
2021/12/09 11:18:35;;;;;;;41.42;15.00;;;;;;;4.10;100.00;100278.47;5072530;28;20481;-75
2021/12/09 11:21:08;;;;;;;33.50;14.48;;;;;;;4.12;100.00;100271.41;5072871;28;20052;-75
2021/12/09 11:23:41;;;;;;;33.25;16.00;;;;;;;4.15;100.00;100276.63;5070494;28;20056;-74
2021/12/09 11:26:28;;;;;;;36.47;13.63;;;;;;;4.19;100.00;100265.13;5071247;28;20409;-75
2021/12/09 11:28:59;;;;;;;30.70;13.73;;;;;;;4.19;100.00;100273.06;5068488;28;20298;-75
2021/12/09 11:31:34;;;;;;;32.90;14.20;;;;;;;4.17;100.00;100268.69;5072499;28;20048;-74
2021/12/09 11:34:11;;;;;;;37.85;14.93;;;;;;;4.13;100.00;100269.63;5070424;28;20088;-75
2021/12/09 11:36:48;;;;;;;36.88;16.63;;;;;;;4.06;100.00;100263.56;5068489;28;20122;-75
2021/12/09 11:39:28;;;;;;;31.88;14.85;;;;;;;4.06;100.00;100263.56;5070726;28;20083;-74
2021/12/09 11:42:27;;;;;;;31.77;14.05;;;;;;;4.02;100.00;100265.38;5072740;28;20044;-73
2021/12/09 11:45:17;;;;;;;33.72;15.30;;;;;;;4.02;100.00;100256.56;5070335;28;20177;-72
2021/12/09 11:47:53;;;;;;;29.13;15.00;;;;;;;3.99;100.00;100254.88;5070717;28;20080;-71
2021/12/09 11:50:32;;;;;;;38.42;16.27;;;;;;;4.04;100.00;100252.16;5055048;28;20125;-74
2021/12/09 11:53:04;;;;;;;35.83;16.02;;;;;;;4.07;100.00;100262.66;5068933;28;20075;-73
2021/12/09 11:55:37;;;;;;;38.47;16.08;;;;;;;4.07;100.00;100262.66;5072510;28;20279;-72
2021/12/09 11:58:12;;;;;;;30.33;13.40;;;;;;;4.07;100.00;100250.34;5069903;28;20048;-72
2021/12/09 12:12:50;;;;;;;30.58;13.80;;;;;;;4.18;100.00;100254.59;5016148;28;20049;-72
2021/12/09 12:15:55;;;;;;;30.30;13.98;;;;;;;4.26;100.00;100252.72;5067450;28;20051;-73
2021/12/09 12:18:41;;;;;;;27.38;13.05;;;;;;;4.32;100.00;100249.09;5074724;28;20109;-73
2021/12/09 12:25:02;;;;;;;24.77;12.10;;;;;;;4.33;100.00;100254.38;5070100;28;20063;-73
2021/12/09 12:27:43;;;;;;;35.22;12.40;;;;;;;4.33;100.00;100250.84;5071592;28;20048;-73
2021/12/09 12:33:15;;;;;;;24.38;12.50;;;;;;;4.41;100.00;100249.84;5066814;28;20047;-74
2021/12/09 12:38:51;;;;;;;28.98;12.23;;;;;;;4.40;100.00;100247.22;5069979;28;20468;-73
2021/12/09 12:41:21;;;;;;;25.42;11.45;;;;;;;4.50;100.00;100246.16;5072200;28;20052;-74
2021/12/09 12:43:57;;;;;;;22.50;11.32;;;;;;;4.49;100.00;100250.59;5069488;28;20084;-74
2021/12/09 12:46:44;;;;;;;23.25;11.10;;;;;;;4.58;100.00;100251.31;5071603;28;20071;-74
2021/12/09 12:49:19;;;;;;;26.75;12.45;;;;;;;4.47;100.00;100255.00;5070736;28;20117;-75
2021/12/09 12:51:54;;;;;;;21.88;11.52;;;;;;;4.37;100.00;100248.13;5071715;28;20066;-74